sensor_id;sensor_type;location;lat;lon;timestamp;pressure;altitude;pressure_sealevel;temperature;humidity
52719;BME280;38616;42.140;24.760;2023-06-05T00:00:37;100036.97;;;19.55;64.14
52719;BME280;38616;42.140;24.760;2023-06-05T00:03:03;100040.88;;;19.45;63.94
52719;BME280;38616;42.140;24.760;2023-06-05T00:05:28;100047.91;;;19.25;64.91
52719;BME280;38616;42.140;24.760;2023-06-05T00:07:54;100045.50;;;19.14;64.90
52719;BME280;38616;42.140;24.760;2023-06-05T00:10:20;100038.88;;;18.89;65.79
52719;BME280;38616;42.140;24.760;2023-06-05T00:12:46;100036.94;;;19.07;65.53
52719;BME280;38616;42.140;24.760;2023-06-05T00:15:11;100044.72;;;19.05;65.13
52719;BME280;38616;42.140;24.760;2023-06-05T00:17:37;100045.97;;;19.16;64.64
52719;BME280;38616;42.140;24.760;2023-06-05T00:20:03;100036.13;;;19.07;64.42
52719;BME280;38616;42.140;24.760;2023-06-05T00:22:29;100037.91;;;19.11;63.83
52719;BME280;38616;42.140;24.760;2023-06-05T00:24:56;100038.75;;;18.85;64.55
52719;BME280;38616;42.140;24.760;2023-06-05T00:27:22;100036.78;;;18.95;64.60
52719;BME280;38616;42.140;24.760;2023-06-05T00:29:48;100035.47;;;19.10;64.19
52719;BME280;38616;42.140;24.760;2023-06-05T00:32:13;100029.63;;;19.20;63.59
52719;BME280;38616;42.140;24.760;2023-06-05T00:34:39;100033.34;;;19.15;63.34
52719;BME280;38616;42.140;24.760;2023-06-05T00:37:04;100040.84;;;18.97;63.55
52719;BME280;38616;42.140;24.760;2023-06-05T00:39:30;100048.78;;;18.99;63.83
52719;BME280;38616;42.140;24.760;2023-06-05T00:41:55;100043.59;;;18.97;63.62
52719;BME280;38616;42.140;24.760;2023-06-05T00:44:21;100026.69;;;19.25;62.71
52719;BME280;38616;42.140;24.760;2023-06-05T00:46:47;100025.75;;;19.21;62.58
52719;BME280;38616;42.140;24.760;2023-06-05T00:49:14;100030.63;;;18.89;63.13
52719;BME280;38616;42.140;24.760;2023-06-05T00:51:41;100031.94;;;18.92;62.68
52719;BME280;38616;42.140;24.760;2023-06-05T00:54:08;100027.22;;;19.10;62.11
52719;BME280;38616;42.140;24.760;2023-06-05T00:56:33;100034.31;;;19.19;61.23
52719;BME280;38616;42.140;24.760;2023-06-05T00:59:01;100036.75;;;19.21;61.57
52719;BME280;38616;42.140;24.760;2023-06-05T01:01:26;100041.78;;;19.19;61.78
52719;BME280;38616;42.140;24.760;2023-06-05T01:03:57;100037.25;;;19.23;61.35
52719;BME280;38616;42.140;24.760;2023-06-05T01:06:24;100044.84;;;19.26;61.63
52719;BME280;38616;42.140;24.760;2023-06-05T01:08:52;100044.50;;;19.28;61.20
52719;BME280;38616;42.140;24.760;2023-06-05T01:11:43;100040.78;;;19.24;61.36
52719;BME280;38616;42.140;24.760;2023-06-05T01:14:23;100041.31;;;19.17;61.53
52719;BME280;38616;42.140;24.760;2023-06-05T01:16:50;100040.97;;;19.18;61.52
52719;BME280;38616;42.140;24.760;2023-06-05T01:19:20;100048.25;;;19.23;61.53
52719;BME280;38616;42.140;24.760;2023-06-05T01:21:47;100041.66;;;19.07;62.16
52719;BME280;38616;42.140;24.760;2023-06-05T01:24:12;100043.56;;;19.15;61.79
52719;BME280;38616;42.140;24.760;2023-06-05T01:35:45;100051.84;;;19.15;61.48
52719;BME280;38616;42.140;24.760;2023-06-05T01:38:17;100050.03;;;19.19;60.89
52719;BME280;38616;42.140;24.760;2023-06-05T01:40:43;100048.25;;;19.14;60.87
52719;BME280;38616;42.140;24.760;2023-06-05T01:43:10;100045.19;;;19.07;60.71
52719;BME280;38616;42.140;24.760;2023-06-05T01:45:37;100051.53;;;19.08;60.02
52719;BME280;38616;42.140;24.760;2023-06-05T01:48:07;100054.59;;;18.88;60.89
52719;BME280;38616;42.140;24.760;2023-06-05T01:50:34;100061.56;;;18.95;60.74
52719;BME280;38616;42.140;24.760;2023-06-05T01:53:01;100049.75;;;18.59;60.88
52719;BME280;38616;42.140;24.760;2023-06-05T01:55:27;100059.13;;;18.58;61.46
52719;BME280;38616;42.140;24.760;2023-06-05T01:57:53;100060.75;;;18.50;61.29
52719;BME280;38616;42.140;24.760;2023-06-05T02:00:19;100061.44;;;17.98;62.44
52719;BME280;38616;42.140;24.760;2023-06-05T02:02:46;100068.13;;;18.06;63.02
52719;BME280;38616;42.140;24.760;2023-06-05T02:05:13;100072.41;;;18.47;61.74
52719;BME280;38616;42.140;24.760;2023-06-05T02:07:43;100072.09;;;18.49;61.37
52719;BME280;38616;42.140;24.760;2023-06-05T02:10:09;100070.31;;;18.61;60.87
52719;BME280;38616;42.140;24.760;2023-06-05T02:12:35;100071.94;;;18.63;60.78
52719;BME280;38616;42.140;24.760;2023-06-05T02:15:03;100067.72;;;18.83;60.10
52719;BME280;38616;42.140;24.760;2023-06-05T02:17:29;100076.44;;;18.67;59.63
52719;BME280;38616;42.140;24.760;2023-06-05T02:19:54;100076.59;;;17.86;62.28
52719;BME280;38616;42.140;24.760;2023-06-05T02:22:20;100084.63;;;18.06;61.93
52719;BME280;38616;42.140;24.760;2023-06-05T02:24:45;100087.13;;;17.93;62.67
52719;BME280;38616;42.140;24.760;2023-06-05T02:27:13;100087.88;;;18.08;62.65
52719;BME280;38616;42.140;24.760;2023-06-05T02:29:38;100089.50;;;18.17;61.93
52719;BME280;38616;42.140;24.760;2023-06-05T02:32:05;100089.34;;;18.23;61.76
52719;BME280;38616;42.140;24.760;2023-06-05T02:34:32;100084.53;;;18.46;61.26
52719;BME280;38616;42.140;24.760;2023-06-05T02:36:59;100084.06;;;18.53;60.55
52719;BME280;38616;42.140;24.760;2023-06-05T02:39:28;100076.59;;;18.62;60.18
52719;BME280;38616;42.140;24.760;2023-06-05T02:41:54;100073.19;;;18.65;60.16
52719;BME280;38616;42.140;24.760;2023-06-05T02:44:21;100067.53;;;18.70;60.21
52719;BME280;38616;42.140;24.760;2023-06-05T02:46:46;100065.09;;;18.95;58.98
52719;BME280;38616;42.140;24.760;2023-06-05T02:49:11;100069.66;;;18.73;59.55
52719;BME280;38616;42.140;24.760;2023-06-05T02:51:37;100066.41;;;18.71;59.42
52719;BME280;38616;42.140;24.760;2023-06-05T02:54:02;100072.41;;;18.65;59.90
52719;BME280;38616;42.140;24.760;2023-06-05T02:56:28;100069.16;;;18.63;59.95
52719;BME280;38616;42.140;24.760;2023-06-05T02:58:54;100065.09;;;18.60;59.85
52719;BME280;38616;42.140;24.760;2023-06-05T03:01:22;100073.53;;;18.64;59.55
52719;BME280;38616;42.140;24.760;2023-06-05T03:03:47;100074.34;;;18.64;59.75
52719;BME280;38616;42.140;24.760;2023-06-05T03:06:14;100079.34;;;18.62;59.96
52719;BME280;38616;42.140;24.760;2023-06-05T03:08:43;100069.97;;;18.63;59.20
52719;BME280;38616;42.140;24.760;2023-06-05T03:11:08;100068.03;;;18.72;58.89
52719;BME280;38616;42.140;24.760;2023-06-05T03:13:34;100067.53;;;18.70;58.76
52719;BME280;38616;42.140;24.760;2023-06-05T03:15:59;100063.19;;;18.52;59.42
52719;BME280;38616;42.140;24.760;2023-06-05T03:18:29;100063.19;;;18.52;58.76
52719;BME280;38616;42.140;24.760;2023-06-05T03:20:55;100063.66;;;18.36;59.34
52719;BME280;38616;42.140;24.760;2023-06-05T03:23:25;100061.38;;;18.47;58.72
52719;BME280;38616;42.140;24.760;2023-06-05T03:25:53;100065.09;;;18.60;58.49
52719;BME280;38616;42.140;24.760;2023-06-05T03:28:19;100057.03;;;18.55;57.64
52719;BME280;38616;42.140;24.760;2023-06-05T03:30:45;100048.44;;;18.56;57.77
52719;BME280;38616;42.140;24.760;2023-06-05T03:33:10;100049.25;;;18.48;57.41
52719;BME280;38616;42.140;24.760;2023-06-05T03:35:36;100051.69;;;18.32;58.19
52719;BME280;38616;42.140;24.760;2023-06-05T03:38:02;100046.00;;;18.28;58.11
52719;BME280;38616;42.140;24.760;2023-06-05T03:40:28;100048.91;;;18.14;58.69
52719;BME280;38616;42.140;24.760;2023-06-05T03:42:54;100039.69;;;18.28;58.24
52719;BME280;38616;42.140;24.760;2023-06-05T03:45:19;100041.31;;;18.29;58.42
52719;BME280;38616;42.140;24.760;2023-06-05T03:47:45;100037.28;;;18.35;58.35
52719;BME280;38616;42.140;24.760;2023-06-05T03:50:14;100039.56;;;18.33;58.57
52719;BME280;38616;42.140;24.760;2023-06-05T03:52:40;100033.56;;;18.31;58.45
52719;BME280;38616;42.140;24.760;2023-06-05T03:55:07;100038.75;;;18.50;57.91
52719;BME280;38616;42.140;24.760;2023-06-05T03:57:33;100043.28;;;18.46;58.26
52719;BME280;38616;42.140;24.760;2023-06-05T03:59:59;100048.13;;;18.49;58.36
52719;BME280;38616;42.140;24.760;2023-06-05T04:02:25;100043.44;;;18.67;57.28
52719;BME280;38616;42.140;24.760;2023-06-05T04:04:50;100044.09;;;18.73;57.08
52719;BME280;38616;42.140;24.760;2023-06-05T04:07:16;100041.00;;;18.66;57.30
52719;BME280;38616;42.140;24.760;2023-06-05T04:09:42;100042.13;;;18.82;57.12
52719;BME280;38616;42.140;24.760;2023-06-05T04:12:08;100037.44;;;18.92;56.54
52719;BME280;38616;42.140;24.760;2023-06-05T04:14:35;100038.72;;;19.03;56.04
52719;BME280;38616;42.140;24.760;2023-06-05T04:17:02;100044.09;;;18.99;56.28
52719;BME280;38616;42.140;24.760;2023-06-05T04:19:28;100048.59;;;19.13;56.16
52719;BME280;38616;42.140;24.760;2023-06-05T04:21:53;100055.72;;;19.14;56.43
52719;BME280;38616;42.140;24.760;2023-06-05T04:24:19;100037.91;;;19.20;56.05
52719;BME280;38616;42.140;24.760;2023-06-05T04:26:44;100045.03;;;19.12;56.24
52719;BME280;38616;42.140;24.760;2023-06-05T04:29:10;100040.47;;;19.25;55.41
52719;BME280;38616;42.140;24.760;2023-06-05T04:31:41;100040.16;;;19.18;55.88
52719;BME280;38616;42.140;24.760;2023-06-05T04:34:07;100047.28;;;19.19;55.54
52719;BME280;38616;42.140;24.760;2023-06-05T04:36:34;100054.25;;;19.25;55.54
52719;BME280;38616;42.140;24.760;2023-06-05T04:39:00;100045.69;;;19.00;56.04
52719;BME280;38616;42.140;24.760;2023-06-05T04:41:30;100060.25;;;19.10;55.93
52719;BME280;38616;42.140;24.760;2023-06-05T04:43:58;100069.97;;;19.16;55.89
52719;BME280;38616;42.140;24.760;2023-06-05T04:46:25;100067.38;;;19.19;56.12
52719;BME280;38616;42.140;24.760;2023-06-05T04:48:51;100069.59;;;19.35;55.60
52719;BME280;38616;42.140;24.760;2023-06-05T04:51:20;100076.41;;;19.38;55.66
52719;BME280;38616;42.140;24.760;2023-06-05T04:53:46;100077.38;;;19.42;54.50
52719;BME280;38616;42.140;24.760;2023-06-05T04:56:16;100069.25;;;19.45;54.61
52719;BME280;38616;42.140;24.760;2023-06-05T04:58:41;100079.44;;;19.54;54.65
52719;BME280;38616;42.140;24.760;2023-06-05T05:01:07;100067.16;;;19.42;54.97
52719;BME280;38616;42.140;24.760;2023-06-05T05:03:33;100079.72;;;19.61;54.77
52719;BME280;38616;42.140;24.760;2023-06-05T05:05:58;100085.88;;;19.67;54.73
52719;BME280;38616;42.140;24.760;2023-06-05T05:08:24;100084.00;;;19.88;53.89
52719;BME280;38616;42.140;24.760;2023-06-05T05:10:49;100087.66;;;19.62;54.83
52719;BME280;38616;42.140;24.760;2023-06-05T05:13:15;100089.13;;;19.60;55.07
52719;BME280;38616;42.140;24.760;2023-06-05T05:15:40;100093.16;;;19.62;55.35
52719;BME280;38616;42.140;24.760;2023-06-05T05:18:06;100095.94;;;19.62;54.88
52719;BME280;38616;42.140;24.760;2023-06-05T05:20:32;100099.72;;;19.40;55.75
52719;BME280;38616;42.140;24.760;2023-06-05T05:22:59;100098.69;;;19.62;55.61
52719;BME280;38616;42.140;24.760;2023-06-05T05:25:25;100102.69;;;19.74;54.85
52719;BME280;38616;42.140;24.760;2023-06-05T05:27:51;100102.69;;;19.74;55.40
52719;BME280;38616;42.140;24.760;2023-06-05T05:30:17;100098.50;;;19.76;55.50
52719;BME280;38616;42.140;24.760;2023-06-05T05:32:42;100099.19;;;20.03;54.26
52719;BME280;38616;42.140;24.760;2023-06-05T05:35:08;100107.59;;;19.59;55.33
52719;BME280;38616;42.140;24.760;2023-06-05T05:37:33;100107.97;;;19.49;55.95
52719;BME280;38616;42.140;24.760;2023-06-05T05:39:59;100116.78;;;19.16;56.16
52719;BME280;38616;42.140;24.760;2023-06-05T05:42:24;100109.59;;;19.41;56.11
52719;BME280;38616;42.140;24.760;2023-06-05T05:44:50;100110.72;;;19.49;55.69
52719;BME280;38616;42.140;24.760;2023-06-05T05:47:15;100114.41;;;19.62;55.56
52719;BME280;38616;42.140;24.760;2023-06-05T05:49:40;100116.34;;;19.61;55.83
52719;BME280;38616;42.140;24.760;2023-06-05T05:52:06;100116.34;;;19.70;55.28
52719;BME280;38616;42.140;24.760;2023-06-05T05:54:31;100123.81;;;19.61;56.11
52719;BME280;38616;42.140;24.760;2023-06-05T05:56:57;100115.69;;;19.64;55.33
52719;BME280;38616;42.140;24.760;2023-06-05T05:59:22;100117.91;;;19.32;56.59
52719;BME280;38616;42.140;24.760;2023-06-05T06:01:48;100119.69;;;19.11;57.30
52719;BME280;38616;42.140;24.760;2023-06-05T06:04:16;100116.44;;;19.26;57.18
52719;BME280;38616;42.140;24.760;2023-06-05T06:06:42;100111.25;;;19.81;55.99
52719;BME280;38616;42.140;24.760;2023-06-05T06:09:08;100113.25;;;19.72;55.77
52719;BME280;38616;42.140;24.760;2023-06-05T06:11:36;100118.19;;;19.48;56.57
52719;BME280;38616;42.140;24.760;2023-06-05T06:14:01;100110.78;;;19.14;57.87
52719;BME280;38616;42.140;24.760;2023-06-05T06:16:27;100108.91;;;19.53;57.14
52719;BME280;38616;42.140;24.760;2023-06-05T06:18:52;100108.81;;;19.88;56.42
52719;BME280;38616;42.140;24.760;2023-06-05T06:21:17;100103.34;;;20.18;55.64
52719;BME280;38616;42.140;24.760;2023-06-05T06:23:44;100098.81;;;20.44;55.71
52719;BME280;38616;42.140;24.760;2023-06-05T06:26:10;100104.41;;;20.56;54.84
52719;BME280;38616;42.140;24.760;2023-06-05T06:28:37;100092.41;;;20.73;54.48
52719;BME280;38616;42.140;24.760;2023-06-05T06:31:03;100090.63;;;20.77;54.65
52719;BME280;38616;42.140;24.760;2023-06-05T06:33:28;100099.19;;;20.85;54.34
52719;BME280;38616;42.140;24.760;2023-06-05T06:35:54;100100.28;;;21.05;54.10
52719;BME280;38616;42.140;24.760;2023-06-05T06:38:20;100097.78;;;21.12;53.96
52719;BME280;38616;42.140;24.760;2023-06-05T06:40:46;100101.16;;;21.18;53.91
52719;BME280;38616;42.140;24.760;2023-06-05T06:43:12;100100.53;;;21.46;53.28
52719;BME280;38616;42.140;24.760;2023-06-05T06:45:37;100103.13;;;21.63;53.05
52719;BME280;38616;42.140;24.760;2023-06-05T06:48:02;100097.41;;;21.81;52.71
52719;BME280;38616;42.140;24.760;2023-06-05T06:50:28;100104.81;;;21.43;53.55
52719;BME280;38616;42.140;24.760;2023-06-05T06:52:53;100102.53;;;20.90;55.58
52719;BME280;38616;42.140;24.760;2023-06-05T06:55:19;100105.63;;;20.89;56.32
52719;BME280;38616;42.140;24.760;2023-06-05T06:57:44;100101.47;;;20.83;56.89
52719;BME280;38616;42.140;24.760;2023-06-05T07:00:10;100094.38;;;20.94;56.12
52719;BME280;38616;42.140;24.760;2023-06-05T07:02:39;100102.31;;;20.74;56.55
52719;BME280;38616;42.140;24.760;2023-06-05T07:05:07;100102.53;;;21.11;56.71
52719;BME280;38616;42.140;24.760;2023-06-05T07:07:33;100086.22;;;21.31;56.19
52719;BME280;38616;42.140;24.760;2023-06-05T07:09:58;100092.56;;;20.98;57.36
52719;BME280;38616;42.140;24.760;2023-06-05T07:12:24;100089.97;;;21.14;56.97
52719;BME280;38616;42.140;24.760;2023-06-05T07:14:49;100088.44;;;21.04;57.57
52719;BME280;38616;42.140;24.760;2023-06-05T07:17:15;100080.91;;;20.71;58.11
52719;BME280;38616;42.140;24.760;2023-06-05T07:19:40;100091.00;;;20.46;58.56
52719;BME280;38616;42.140;24.760;2023-06-05T07:22:06;100090.31;;;20.70;58.47
52719;BME280;38616;42.140;24.760;2023-06-05T07:24:34;100079.38;;;21.16;56.97
52719;BME280;38616;42.140;24.760;2023-06-05T07:27:04;100082.94;;;21.50;56.21
52719;BME280;38616;42.140;24.760;2023-06-05T07:29:30;100082.66;;;21.77;55.31
52719;BME280;38616;42.140;24.760;2023-06-05T07:31:56;100080.81;;;21.81;55.47
52719;BME280;38616;42.140;24.760;2023-06-05T07:34:23;100087.25;;;21.73;56.10
52719;BME280;38616;42.140;24.760;2023-06-05T07:36:50;100084.72;;;21.92;55.45
52719;BME280;38616;42.140;24.760;2023-06-05T07:39:17;100079.53;;;22.28;54.65
52719;BME280;38616;42.140;24.760;2023-06-05T07:41:43;100090.38;;;21.96;54.53
52719;BME280;38616;42.140;24.760;2023-06-05T07:44:10;100095.38;;;21.44;55.61
52719;BME280;38616;42.140;24.760;2023-06-05T07:46:37;100093.59;;;21.39;56.40
52719;BME280;38616;42.140;24.760;2023-06-05T07:49:04;100085.88;;;22.04;55.50
52719;BME280;38616;42.140;24.760;2023-06-05T07:51:30;100094.94;;;21.67;55.24
52719;BME280;38616;42.140;24.760;2023-06-05T07:54:02;100089.38;;;21.42;56.32
52719;BME280;38616;42.140;24.760;2023-06-05T07:56:27;100097.41;;;21.81;55.81
52719;BME280;38616;42.140;24.760;2023-06-05T07:58:53;100088.38;;;22.21;54.64
52719;BME280;38616;42.140;24.760;2023-06-05T08:01:18;100089.28;;;22.38;54.56
52719;BME280;38616;42.140;24.760;2023-06-05T08:03:46;100080.06;;;22.34;54.33
52719;BME280;38616;42.140;24.760;2023-06-05T08:06:14;100073.16;;;22.52;54.28
52719;BME280;38616;42.140;24.760;2023-06-05T08:08:41;100079.75;;;22.23;53.90
52719;BME280;38616;42.140;24.760;2023-06-05T08:11:06;100088.19;;;22.02;54.93
52719;BME280;38616;42.140;24.760;2023-06-05T08:13:32;100075.59;;;22.17;54.34
52719;BME280;38616;42.140;24.760;2023-06-05T08:15:57;100073.38;;;22.35;53.90
52719;BME280;38616;42.140;24.760;2023-06-05T08:18:23;100061.75;;;22.41;53.95
52719;BME280;38616;42.140;24.760;2023-06-05T08:20:50;100071.06;;;22.62;53.46
52719;BME280;38616;42.140;24.760;2023-06-05T08:23:16;100055.09;;;22.71;52.87
52719;BME280;38616;42.140;24.760;2023-06-05T08:25:42;100057.59;;;22.88;52.99
52719;BME280;38616;42.140;24.760;2023-06-05T08:28:07;100053.09;;;22.84;52.65
52719;BME280;38616;42.140;24.760;2023-06-05T08:30:33;100052.22;;;22.67;52.94
52719;BME280;38616;42.140;24.760;2023-06-05T08:32:58;100057.13;;;22.86;52.77
52719;BME280;38616;42.140;24.760;2023-06-05T08:35:24;100048.53;;;22.63;53.50
52719;BME280;38616;42.140;24.760;2023-06-05T08:37:49;100052.19;;;22.26;54.54
52719;BME280;38616;42.140;24.760;2023-06-05T08:40:16;100048.97;;;22.12;55.25
52719;BME280;38616;42.140;24.760;2023-06-05T08:42:43;100053.22;;;22.47;54.29
52719;BME280;38616;42.140;24.760;2023-06-05T08:45:09;100044.09;;;22.46;54.25
52719;BME280;38616;42.140;24.760;2023-06-05T08:47:36;100040.41;;;22.83;53.34
52719;BME280;38616;42.140;24.760;2023-06-05T08:50:04;100029.50;;;22.90;52.73
52719;BME280;38616;42.140;24.760;2023-06-05T08:52:33;100037.19;;;22.97;52.93
52719;BME280;38616;42.140;24.760;2023-06-05T08:55:00;100032.13;;;22.99;52.95
52719;BME280;38616;42.140;24.760;2023-06-05T08:57:27;100032.94;;;23.15;52.87
52719;BME280;38616;42.140;24.760;2023-06-05T08:59:53;100030.13;;;23.44;52.15
52719;BME280;38616;42.140;24.760;2023-06-05T09:02:19;100030.78;;;23.37;52.08
52719;BME280;38616;42.140;24.760;2023-06-05T09:04:44;100035.38;;;23.17;52.16
52719;BME280;38616;42.140;24.760;2023-06-05T09:07:11;100035.97;;;22.94;52.76
52719;BME280;38616;42.140;24.760;2023-06-05T09:09:37;100023.03;;;23.14;53.29
52719;BME280;38616;42.140;24.760;2023-06-05T09:12:06;100035.88;;;23.35;52.22
52719;BME280;38616;42.140;24.760;2023-06-05T09:14:33;100026.66;;;23.31;51.12
52719;BME280;38616;42.140;24.760;2023-06-05T09:16:59;100030.63;;;23.17;51.19
52719;BME280;38616;42.140;24.760;2023-06-05T09:19:35;100021.88;;;23.15;51.87
52719;BME280;38616;42.140;24.760;2023-06-05T09:22:01;100020.41;;;23.34;52.02
52719;BME280;38616;42.140;24.760;2023-06-05T09:24:27;100015.13;;;23.45;51.77
52719;BME280;38616;42.140;24.760;2023-06-05T09:27:03;100026.13;;;23.41;50.83
52719;BME280;38616;42.140;24.760;2023-06-05T09:29:33;100017.91;;;23.61;51.20
52719;BME280;38616;42.140;24.760;2023-06-05T09:37:02;100019.78;;;23.57;50.39
52719;BME280;38616;42.140;24.760;2023-06-05T09:39:30;100010.91;;;23.51;50.85
52719;BME280;38616;42.140;24.760;2023-06-05T09:41:57;100016.25;;;23.76;50.54
52719;BME280;38616;42.140;24.760;2023-06-05T09:44:23;100003.13;;;23.73;50.36
52719;BME280;38616;42.140;24.760;2023-06-05T09:47:05;99993.69;;;23.94;50.59
52719;BME280;38616;42.140;24.760;2023-06-05T09:49:52;99994.56;;;24.14;50.09
52719;BME280;38616;42.140;24.760;2023-06-05T09:52:18;99992.34;;;23.87;49.32
52719;BME280;38616;42.140;24.760;2023-06-05T09:54:45;99985.13;;;23.83;49.82
52719;BME280;38616;42.140;24.760;2023-06-05T09:57:12;99991.53;;;23.87;48.52
52719;BME280;38616;42.140;24.760;2023-06-05T09:59:58;99988.84;;;24.07;48.48
52719;BME280;38616;42.140;24.760;2023-06-05T10:02:33;99991.69;;;23.42;49.05
52719;BME280;38616;42.140;24.760;2023-06-05T10:05:04;99980.94;;;23.09;49.82
52719;BME280;38616;42.140;24.760;2023-06-05T10:07:30;99976.78;;;23.31;49.94
52719;BME280;38616;42.140;24.760;2023-06-05T10:09:57;99977.53;;;23.80;49.49
52719;BME280;38616;42.140;24.760;2023-06-05T10:12:23;99972.44;;;24.17;48.63
52719;BME280;38616;42.140;24.760;2023-06-05T10:14:52;99972.66;;;24.28;48.11
52719;BME280;38616;42.140;24.760;2023-06-05T10:17:20;99964.97;;;23.86;48.35
52719;BME280;38616;42.140;24.760;2023-06-05T10:19:50;99965.78;;;23.86;48.04
52719;BME280;38616;42.140;24.760;2023-06-05T10:22:17;99967.56;;;23.95;48.21
52719;BME280;38616;42.140;24.760;2023-06-05T10:24:51;99957.31;;;24.15;47.62
52719;BME280;38616;42.140;24.760;2023-06-05T10:27:40;99961.63;;;24.32;46.80
52719;BME280;38616;42.140;24.760;2023-06-05T10:35:50;99958.50;;;24.73;45.60
52719;BME280;38616;42.140;24.760;2023-06-05T10:40:52;99948.19;;;24.97;44.59
52719;BME280;38616;42.140;24.760;2023-06-05T10:45:54;99948.13;;;25.16;44.25
52719;BME280;38616;42.140;24.760;2023-06-05T10:48:20;99943.13;;;24.59;43.99
52719;BME280;38616;42.140;24.760;2023-06-05T10:50:46;99951.38;;;24.75;43.99
52719;BME280;38616;42.140;24.760;2023-06-05T10:53:51;99944.34;;;24.62;44.03
52719;BME280;38616;42.140;24.760;2023-06-05T10:59:24;99934.28;;;25.20;43.93
52719;BME280;38616;42.140;24.760;2023-06-05T11:07:17;99933.50;;;24.53;44.83
52719;BME280;38616;42.140;24.760;2023-06-05T11:15:15;99921.00;;;24.86;45.08
52719;BME280;38616;42.140;24.760;2023-06-05T11:17:42;99920.16;;;25.05;44.95
52719;BME280;38616;42.140;24.760;2023-06-05T11:20:08;99922.81;;;24.98;45.01
52719;BME280;38616;42.140;24.760;2023-06-05T11:30:19;99908.13;;;25.75;42.69
52719;BME280;38616;42.140;24.760;2023-06-05T11:32:45;99912.44;;;25.72;42.55
52719;BME280;38616;42.140;24.760;2023-06-05T11:35:11;99906.41;;;25.66;43.07
52719;BME280;38616;42.140;24.760;2023-06-05T11:37:38;99910.28;;;25.89;42.08
52719;BME280;38616;42.140;24.760;2023-06-05T11:40:04;99909.88;;;25.87;41.70
52719;BME280;38616;42.140;24.760;2023-06-05T11:42:39;99904.72;;;25.89;41.36
52719;BME280;38616;42.140;24.760;2023-06-05T11:45:11;99906.38;;;25.13;42.12
52719;BME280;38616;42.140;24.760;2023-06-05T11:47:37;99913.78;;;25.05;42.47
52719;BME280;38616;42.140;24.760;2023-06-05T11:50:10;99899.81;;;25.25;41.63
52719;BME280;38616;42.140;24.760;2023-06-05T11:52:37;99893.44;;;25.47;41.35
52719;BME280;38616;42.140;24.760;2023-06-05T11:57:41;99882.91;;;25.64;40.51
52719;BME280;38616;42.140;24.760;2023-06-05T12:00:08;99892.41;;;25.90;40.30
52719;BME280;38616;42.140;24.760;2023-06-05T12:02:34;99886.31;;;25.50;39.43
52719;BME280;38616;42.140;24.760;2023-06-05T12:05:00;99890.06;;;25.61;38.64
52719;BME280;38616;42.140;24.760;2023-06-05T12:07:29;99890.53;;;25.40;38.86
52719;BME280;38616;42.140;24.760;2023-06-05T12:09:55;99890.94;;;25.69;39.45
52719;BME280;38616;42.140;24.760;2023-06-05T12:12:20;99890.38;;;25.87;38.97
52719;BME280;38616;42.140;24.760;2023-06-05T12:14:45;99887.41;;;26.03;37.93
52719;BME280;38616;42.140;24.760;2023-06-05T12:17:11;99894.47;;;25.39;38.57
52719;BME280;38616;42.140;24.760;2023-06-05T12:19:37;99893.66;;;25.38;38.85
52719;BME280;38616;42.140;24.760;2023-06-05T12:22:05;99887.25;;;25.58;38.37
52719;BME280;38616;42.140;24.760;2023-06-05T12:24:31;99874.72;;;25.44;38.73
52719;BME280;38616;42.140;24.760;2023-06-05T12:27:04;99891.69;;;25.39;38.82
52719;BME280;38616;42.140;24.760;2023-06-05T12:29:38;99886.28;;;25.77;38.65
52719;BME280;38616;42.140;24.760;2023-06-05T12:32:20;99878.06;;;25.88;37.93
52719;BME280;38616;42.140;24.760;2023-06-05T12:34:48;99884.72;;;25.79;37.84
52719;BME280;38616;42.140;24.760;2023-06-05T12:40:00;99877.09;;;26.07;37.91
52719;BME280;38616;42.140;24.760;2023-06-05T12:42:26;99870.88;;;26.14;37.14
52719;BME280;38616;42.140;24.760;2023-06-05T12:44:51;99869.31;;;25.86;37.36
52719;BME280;38616;42.140;24.760;2023-06-05T12:47:17;99878.63;;;25.16;37.36
52719;BME280;38616;42.140;24.760;2023-06-05T12:49:42;99863.56;;;25.17;37.63
52719;BME280;38616;42.140;24.760;2023-06-05T12:52:08;99861.81;;;25.05;37.84
52719;BME280;38616;42.140;24.760;2023-06-05T12:54:36;99866.97;;;25.07;38.53
52719;BME280;38616;42.140;24.760;2023-06-05T12:57:02;99864.47;;;25.48;38.26
52719;BME280;38616;42.140;24.760;2023-06-05T12:59:28;99864.91;;;25.27;37.82
52719;BME280;38616;42.140;24.760;2023-06-05T13:01:53;99864.84;;;25.23;38.17
52719;BME280;38616;42.140;24.760;2023-06-05T13:04:19;99861.78;;;25.56;38.36
52719;BME280;38616;42.140;24.760;2023-06-05T13:06:44;99853.88;;;25.92;37.75
52719;BME280;38616;42.140;24.760;2023-06-05T13:09:09;99847.22;;;26.00;37.70
52719;BME280;38616;42.140;24.760;2023-06-05T13:11:35;99848.72;;;26.24;37.62
52719;BME280;38616;42.140;24.760;2023-06-05T13:14:00;99861.66;;;26.44;37.20
52719;BME280;38616;42.140;24.760;2023-06-05T13:16:26;99852.56;;;26.50;36.44
52719;BME280;38616;42.140;24.760;2023-06-05T13:18:52;99858.09;;;26.47;36.47
52719;BME280;38616;42.140;24.760;2023-06-05T13:21:17;99849.63;;;26.36;36.86
52719;BME280;38616;42.140;24.760;2023-06-05T13:23:43;99845.72;;;26.40;36.06
52719;BME280;38616;42.140;24.760;2023-06-05T13:26:08;99858.03;;;26.09;36.08
52719;BME280;38616;42.140;24.760;2023-06-05T13:28:34;99858.56;;;26.15;35.63
52719;BME280;38616;42.140;24.760;2023-06-05T13:30:59;99855.03;;;26.21;35.29
52719;BME280;38616;42.140;24.760;2023-06-05T13:33:27;99857.13;;;26.28;35.05